createdAt,value
2018-08-19T00:00:47.460Z,4.37
2018-08-19T00:03:15.129Z,4.62
2018-08-19T00:05:43.398Z,3.25
2018-08-19T00:08:11.037Z,4.80
2018-08-19T00:10:52.988Z,3.60
2018-08-19T00:13:20.574Z,5.53
2018-08-19T00:15:49.820Z,4.60
2018-08-19T00:18:17.448Z,4.58
2018-08-19T00:20:45.112Z,4.15
2018-08-19T00:23:12.698Z,4.60
2018-08-19T00:25:41.537Z,2.85
2018-08-19T00:28:11.325Z,4.45
2018-08-19T00:30:38.942Z,3.47
2018-08-19T00:33:06.557Z,3.35
2018-08-19T00:35:34.222Z,3.00
2018-08-19T00:38:02.014Z,2.92
2018-08-19T00:40:29.796Z,4.10
2018-08-19T00:42:57.786Z,3.27
2018-08-19T00:45:25.767Z,3.98
2018-08-19T00:47:53.413Z,3.90
2018-08-19T00:50:21.577Z,3.58
2018-08-19T00:52:49.359Z,3.98
2018-08-19T00:55:17.037Z,3.67
2018-08-19T00:57:50.358Z,4.42
2018-08-19T01:00:17.970Z,3.20
2018-08-19T01:02:45.595Z,5.47
2018-08-19T01:05:13.234Z,3.22
2018-08-19T01:07:41.396Z,3.58
2018-08-19T01:10:09.175Z,3.17
2018-08-19T01:12:36.801Z,3.25
2018-08-19T01:15:08.269Z,2.72
2018-08-19T01:17:39.849Z,3.27
2018-08-19T01:20:08.915Z,3.27
2018-08-19T01:22:40.162Z,3.62
2018-08-19T01:25:11.080Z,3.33
2018-08-19T01:27:39.311Z,2.62
2018-08-19T01:30:13.479Z,3.08
2018-08-19T01:32:41.137Z,3.20
2018-08-19T01:35:09.304Z,2.98
2018-08-19T01:37:37.742Z,3.45
2018-08-19T01:40:11.597Z,3.15
2018-08-19T01:42:39.173Z,4.37
2018-08-19T01:45:07.512Z,3.17
2018-08-19T01:47:35.101Z,3.12
2018-08-19T01:50:02.879Z,2.85
2018-08-19T01:52:30.558Z,2.90
2018-08-19T01:54:58.157Z,2.92
2018-08-19T01:57:31.038Z,2.72
2018-08-19T01:59:59.469Z,3.50
2018-08-19T02:02:27.718Z,6.37
2018-08-19T02:04:55.819Z,5.05
2018-08-19T02:07:23.822Z,5.08
2018-08-19T02:09:59.502Z,8.38
2018-08-19T02:12:35.633Z,4.35
2018-08-19T02:15:04.535Z,4.70
2018-08-19T02:17:32.621Z,4.92
2018-08-19T02:20:00.231Z,4.47
2018-08-19T02:22:27.809Z,5.58
2018-08-19T02:24:55.420Z,3.52
2018-08-19T02:27:23.218Z,5.72
2018-08-19T02:29:50.824Z,6.83
2018-08-19T02:32:18.482Z,4.55
2018-08-19T02:34:46.210Z,4.67
2018-08-19T02:37:15.823Z,4.12
2018-08-19T02:39:45.652Z,5.03
2018-08-19T02:42:32.418Z,3.10
2018-08-19T02:45:03.486Z,4.90
2018-08-19T02:47:31.781Z,4.45
2018-08-19T02:49:59.382Z,3.85
2018-08-19T02:52:30.055Z,3.80
2018-08-19T02:54:59.957Z,5.60
2018-08-19T02:57:28.466Z,3.47
2018-08-19T02:59:56.662Z,4.33
2018-08-19T03:02:26.178Z,4.25
2018-08-19T03:04:54.749Z,3.92
2018-08-19T03:07:25.487Z,3.62
2018-08-19T03:09:58.855Z,4.78
2018-08-19T03:12:26.558Z,4.95
2018-08-19T03:14:54.963Z,4.78
2018-08-19T03:17:23.135Z,5.83
2018-08-19T03:19:52.011Z,4.58
2018-08-19T03:22:19.641Z,4.45
2018-08-19T03:24:47.213Z,4.15
2018-08-19T03:27:14.773Z,4.60
2018-08-19T03:29:48.104Z,5.33
2018-08-19T03:32:15.661Z,4.95
2018-08-19T03:34:43.247Z,4.40
2018-08-19T03:37:13.625Z,4.08
2018-08-19T03:39:41.452Z,5.42
2018-08-19T03:42:09.382Z,4.30
2018-08-19T03:44:37.014Z,4.05
2018-08-19T03:47:09.461Z,6.00
2018-08-19T03:49:37.043Z,3.52
2018-08-19T03:52:04.653Z,5.40
2018-08-19T03:54:32.264Z,3.60
2018-08-19T03:56:59.930Z,4.40
2018-08-19T03:59:27.568Z,4.50
2018-08-19T04:01:55.202Z,6.60
2018-08-19T04:04:22.849Z,3.77
2018-08-19T04:06:50.438Z,4.83
2018-08-19T04:09:18.010Z,5.40
2018-08-19T04:11:55.896Z,4.87
2018-08-19T04:14:28.122Z,4.97
2018-08-19T04:16:57.753Z,4.83
2018-08-19T04:19:25.988Z,5.15
2018-08-19T04:22:02.554Z,5.40
2018-08-19T04:24:31.549Z,5.08
2018-08-19T04:27:04.279Z,5.42
2018-08-19T04:29:33.234Z,4.78
2018-08-19T04:32:01.269Z,4.95
2018-08-19T04:34:29.022Z,5.70
2018-08-19T04:36:57.267Z,3.90
2018-08-19T04:39:24.890Z,3.25
2018-08-19T04:41:52.499Z,3.67
2018-08-19T04:44:20.115Z,3.65
2018-08-19T04:46:48.445Z,5.05
2018-08-19T04:49:16.057Z,3.72
2018-08-19T04:51:43.661Z,4.10
2018-08-19T04:54:11.298Z,5.10
2018-08-19T04:56:38.893Z,4.80
2018-08-19T04:59:06.581Z,5.78
2018-08-19T05:01:34.217Z,6.90
2018-08-19T05:04:01.847Z,4.62
2018-08-19T05:06:29.511Z,4.12
2018-08-19T05:08:57.913Z,6.00
2018-08-19T05:11:25.534Z,4.15
2018-08-19T05:13:53.125Z,3.65
2018-08-19T05:16:20.698Z,5.47
2018-08-19T05:18:54.154Z,5.30
2018-08-19T05:21:24.650Z,6.55
2018-08-19T05:23:52.259Z,5.90
2018-08-19T05:26:19.841Z,4.80
2018-08-19T05:29:04.353Z,5.30
2018-08-19T05:31:32.796Z,5.50
2018-08-19T05:34:01.363Z,4.97
2018-08-19T05:36:33.572Z,4.42
2018-08-19T05:39:02.358Z,6.53
2018-08-19T05:41:29.943Z,5.37
2018-08-19T05:43:57.589Z,7.55
2018-08-19T05:46:25.767Z,4.62
2018-08-19T05:48:58.298Z,7.03
2018-08-19T05:51:25.921Z,6.37
2018-08-19T05:53:53.655Z,6.53
2018-08-19T05:56:21.286Z,5.00
2018-08-19T05:58:49.478Z,5.45
2018-08-19T06:01:22.905Z,6.05
2018-08-19T06:03:51.207Z,6.00
2018-08-19T06:06:18.859Z,6.20
2018-08-19T06:08:46.465Z,6.87
2018-08-19T06:11:14.093Z,6.35
2018-08-19T06:13:41.744Z,6.12
2018-08-19T06:16:09.372Z,7.30
2018-08-19T06:18:36.970Z,8.27
2018-08-19T06:21:05.132Z,6.17
2018-08-19T06:23:32.883Z,7.87
2018-08-19T06:26:00.531Z,6.20
2018-08-19T06:28:28.194Z,8.30
2018-08-19T06:30:55.914Z,7.77
2018-08-19T06:33:23.536Z,8.20
2018-08-19T06:35:51.207Z,9.53
2018-08-19T06:38:19.837Z,7.00
2018-08-19T06:40:47.536Z,7.43
2018-08-19T06:43:15.184Z,9.23
2018-08-19T06:45:42.808Z,6.93
2018-08-19T06:48:10.764Z,6.57
2018-08-19T06:50:38.468Z,7.03
2018-08-19T06:53:06.229Z,6.83
2018-08-19T06:55:33.871Z,5.87
2018-08-19T06:58:01.614Z,6.30
2018-08-19T07:00:30.338Z,7.83
2018-08-19T07:02:59.186Z,7.07
2018-08-19T07:05:26.836Z,7.10
2018-08-19T07:07:54.581Z,7.30
2018-08-19T07:10:29.749Z,6.23
2018-08-19T07:13:02.046Z,6.20
2018-08-19T07:15:30.933Z,7.07
2018-08-19T07:17:58.659Z,7.87
2018-08-19T07:20:27.273Z,7.80
2018-08-19T07:22:54.874Z,8.30
2018-08-19T07:25:22.520Z,7.07
2018-08-19T07:27:50.226Z,8.10
2018-08-19T07:30:17.936Z,6.93
2018-08-19T07:32:45.650Z,6.03
2018-08-19T07:35:13.307Z,6.93
2018-08-19T07:37:40.973Z,5.55
2018-08-19T07:40:09.305Z,7.15
2018-08-19T07:42:37.165Z,6.87
2018-08-19T07:45:05.066Z,6.85
2018-08-19T07:47:32.752Z,6.72
2018-08-19T07:50:01.524Z,6.70
2018-08-19T07:52:29.412Z,7.40
2018-08-19T07:54:57.054Z,5.62
2018-08-19T07:57:27.214Z,8.88
2018-08-19T07:59:55.708Z,7.03
2018-08-19T08:02:27.632Z,6.50
2018-08-19T08:04:55.405Z,6.75
2018-08-19T08:07:23.080Z,6.83
2018-08-19T08:09:50.787Z,5.85
2018-08-19T08:12:18.763Z,5.80
2018-08-19T08:14:52.359Z,6.10
2018-08-19T08:17:20.883Z,5.17
2018-08-19T08:19:54.261Z,5.05
2018-08-19T08:22:21.947Z,5.35
2018-08-19T08:24:49.723Z,5.87
2018-08-19T08:27:17.406Z,6.15
2018-08-19T08:29:45.036Z,6.28
2018-08-19T08:32:12.731Z,6.17
2018-08-19T08:34:40.410Z,6.85
2018-08-19T08:37:08.360Z,6.00
2018-08-19T08:39:36.809Z,6.40
2018-08-19T08:42:05.675Z,6.22
2018-08-19T08:44:33.390Z,7.22
2018-08-19T08:47:03.586Z,6.85
2018-08-19T08:49:36.937Z,7.45
2018-08-19T08:52:12.237Z,7.45
2018-08-19T08:54:44.952Z,8.23
2018-08-19T08:57:12.655Z,5.58
2018-08-19T08:59:40.309Z,8.45
2018-08-19T09:02:08.642Z,7.42
2018-08-19T09:04:36.658Z,6.15
2018-08-19T09:07:04.287Z,7.28
2018-08-19T09:09:31.925Z,7.55
2018-08-19T09:11:59.567Z,5.45
2018-08-19T09:14:27.225Z,7.17
2018-08-19T09:16:54.966Z,6.12
2018-08-19T09:19:22.624Z,6.45
2018-08-19T09:21:50.205Z,7.03
2018-08-19T09:24:17.826Z,6.33
2018-08-19T09:26:45.432Z,9.95
2018-08-19T09:29:13.690Z,6.70
2018-08-19T09:31:41.379Z,6.35
2018-08-19T09:34:09.072Z,6.47
2018-08-19T09:36:36.691Z,5.40
2018-08-19T09:39:08.260Z,7.58
2018-08-19T09:41:35.834Z,6.75
2018-08-19T09:44:03.583Z,7.25
2018-08-19T09:46:31.224Z,5.83
2018-08-19T09:48:58.850Z,6.25
2018-08-19T09:51:26.471Z,8.85
2018-08-19T09:53:54.074Z,7.95
2018-08-19T09:56:22.830Z,7.40
2018-08-19T09:59:05.775Z,8.43
2018-08-19T10:01:39.429Z,7.70
2018-08-19T10:04:13.419Z,9.50
2018-08-19T10:06:41.445Z,6.35
2018-08-19T10:09:09.131Z,6.03
2018-08-19T10:11:37.299Z,7.53
2018-08-19T10:14:04.942Z,6.60
2018-08-19T10:16:41.896Z,7.87
2018-08-19T10:19:09.910Z,5.50
2018-08-19T10:21:38.084Z,5.92
2018-08-19T10:24:18.125Z,7.72
2018-08-19T10:26:46.137Z,5.50
2018-08-19T10:29:13.862Z,6.47
2018-08-19T10:31:41.729Z,7.20
2018-08-19T10:34:09.898Z,5.50
2018-08-19T10:36:37.560Z,5.55
2018-08-19T10:39:11.098Z,5.00
2018-08-19T10:41:38.814Z,5.03
2018-08-19T10:44:06.598Z,4.72
2018-08-19T10:46:34.858Z,4.90
2018-08-19T10:49:02.539Z,6.53
2018-08-19T10:51:30.332Z,5.72
2018-08-19T10:53:58.035Z,5.50
2018-08-19T10:56:25.874Z,5.70
2018-08-19T10:58:58.254Z,4.85
2018-08-19T11:01:26.190Z,6.92
2018-08-19T11:03:54.009Z,6.08
2018-08-19T11:06:21.689Z,5.60
2018-08-19T11:08:57.960Z,5.83
2018-08-19T11:11:30.379Z,5.62
2018-08-19T11:13:57.994Z,5.95
2018-08-19T11:16:25.654Z,4.53
2018-08-19T11:18:53.492Z,5.22
2018-08-19T11:21:28.348Z,5.28
2018-08-19T11:23:56.883Z,4.55
2018-08-19T11:26:24.633Z,4.70
2018-08-19T11:28:54.285Z,5.03
2018-08-19T11:31:27.661Z,4.65
2018-08-19T11:33:59.051Z,6.08
2018-08-19T11:36:33.832Z,5.35
2018-08-19T11:39:01.705Z,4.22
2018-08-19T11:41:30.177Z,5.65
2018-08-19T11:43:58.370Z,6.15
2018-08-19T11:46:26.017Z,7.67
2018-08-19T11:48:59.289Z,5.87
2018-08-19T11:51:43.206Z,4.72
2018-08-19T11:54:12.598Z,4.22
2018-08-19T11:56:40.198Z,6.25
2018-08-19T11:59:08.097Z,5.45
2018-08-19T12:01:35.782Z,6.45
2018-08-19T12:04:09.239Z,4.85
2018-08-19T12:06:36.822Z,4.08
2018-08-19T12:09:08.533Z,3.98
2018-08-19T12:11:37.434Z,3.98
2018-08-19T12:14:07.728Z,4.53
2018-08-19T12:17:40.503Z,5.37
2018-08-19T12:20:08.141Z,3.85
2018-08-19T12:22:35.787Z,4.20
2018-08-19T12:25:03.732Z,4.65
2018-08-19T12:27:31.945Z,5.50
2018-08-19T12:30:32.302Z,5.67
2018-08-19T12:33:17.050Z,4.58
2018-08-19T12:35:44.645Z,5.03
2018-08-19T12:38:12.278Z,5.08
2018-08-19T12:40:44.561Z,5.25
2018-08-19T12:43:12.191Z,3.50
2018-08-19T12:45:39.737Z,4.22
2018-08-19T12:48:08.078Z,6.35
2018-08-19T13:09:27.951Z,11.48
2018-08-19T13:12:03.706Z,9.15
2018-08-19T13:14:31.721Z,7.20
2018-08-19T13:17:00.455Z,8.18
2018-08-19T13:19:28.808Z,8.98
2018-08-19T13:21:56.518Z,8.83
2018-08-19T13:24:28.729Z,8.93
2018-08-19T13:26:57.190Z,9.35
2018-08-19T13:29:24.825Z,6.58
2018-08-19T13:31:52.490Z,8.88
2018-08-19T13:34:20.154Z,6.53
2018-08-19T13:36:47.863Z,6.40
2018-08-19T13:39:15.495Z,6.45
2018-08-19T13:41:43.146Z,8.78
2018-08-19T13:44:10.762Z,7.80
2018-08-19T13:46:38.357Z,7.45
2018-08-19T13:49:06.073Z,8.08
2018-08-19T13:51:33.845Z,7.87
2018-08-19T13:54:01.466Z,8.40
2018-08-19T13:56:29.094Z,7.00
2018-08-19T13:58:56.691Z,6.53
2018-08-19T14:01:24.365Z,6.58
2018-08-19T14:03:51.982Z,6.85
2018-08-19T14:06:19.594Z,6.72
2018-08-19T14:08:47.669Z,6.58
2018-08-19T14:11:15.285Z,5.78
2018-08-19T14:13:43.107Z,8.18
2018-08-19T14:16:10.701Z,6.12
2018-08-19T14:18:38.543Z,7.03
2018-08-19T14:21:06.222Z,8.28
2018-08-19T14:23:33.852Z,5.72
2018-08-19T14:26:04.131Z,5.78
2018-08-19T14:28:31.760Z,5.80
2018-08-19T14:30:59.365Z,5.37
2018-08-19T14:33:26.986Z,6.20
2018-08-19T14:35:54.571Z,6.58
2018-08-19T14:38:22.189Z,6.60
2018-08-19T14:40:49.857Z,6.40
2018-08-19T14:43:17.460Z,5.62
2018-08-19T14:45:45.087Z,6.97
2018-08-19T14:48:12.722Z,6.12
2018-08-19T14:50:42.269Z,5.40
2018-08-19T14:53:09.931Z,6.58
2018-08-19T14:55:37.529Z,6.17
2018-08-19T14:58:05.173Z,7.72
2018-08-19T15:00:33.590Z,7.33
2018-08-19T15:03:01.243Z,6.45
2018-08-19T15:05:28.877Z,7.90
2018-08-19T15:08:05.534Z,5.72
2018-08-19T15:10:34.285Z,5.87
2018-08-19T15:13:02.306Z,5.92
2018-08-19T15:15:29.935Z,8.30
2018-08-19T15:17:59.930Z,7.20
2018-08-19T15:20:33.000Z,8.58
2018-08-19T15:23:14.266Z,8.20
2018-08-19T15:25:41.893Z,5.67
2018-08-19T15:28:09.558Z,7.05
2018-08-19T15:30:39.482Z,10.58
2018-08-19T15:33:07.892Z,10.28
2018-08-19T15:35:35.357Z,8.15
2018-08-19T15:38:02.970Z,6.55
2018-08-19T15:40:46.283Z,7.03
2018-08-19T15:43:14.035Z,7.03
2018-08-19T15:45:42.302Z,6.10
2018-08-19T15:48:09.951Z,8.38
2018-08-19T15:50:37.592Z,10.05
2018-08-19T15:53:07.035Z,6.37
2018-08-19T15:55:35.004Z,8.15
2018-08-19T15:58:03.415Z,6.62
2018-08-19T16:00:34.272Z,8.13
2018-08-19T16:03:07.164Z,6.25
2018-08-19T16:05:34.871Z,7.42
2018-08-19T16:08:03.957Z,7.05
2018-08-19T16:10:32.539Z,7.83
2018-08-19T16:13:05.306Z,6.67
2018-08-19T16:15:32.878Z,6.87
2018-08-19T16:18:00.534Z,6.55
2018-08-19T16:20:28.180Z,6.42
2018-08-19T16:22:55.793Z,5.33
2018-08-19T16:25:23.427Z,6.00
2018-08-19T16:27:51.358Z,5.70
2018-08-19T16:30:19.439Z,6.08
2018-08-19T16:32:48.553Z,16.27
2018-08-19T16:35:16.218Z,15.83
2018-08-19T16:37:43.821Z,8.03
2018-08-19T16:40:12.483Z,9.78
2018-08-19T16:42:40.861Z,11.53
2018-08-19T16:45:10.371Z,11.78
2018-08-19T16:47:37.994Z,11.35
2018-08-19T16:50:09.418Z,12.25
2018-08-19T16:52:37.138Z,10.35
2018-08-19T16:55:05.603Z,8.80
2018-08-19T16:57:33.255Z,9.98
2018-08-19T17:00:02.430Z,13.78
2018-08-19T17:02:30.984Z,9.58
2018-08-19T17:05:00.532Z,9.18
2018-08-19T17:07:28.215Z,7.40
2018-08-19T17:09:55.879Z,9.15
2018-08-19T17:12:25.250Z,9.53
2018-08-19T17:14:54.736Z,9.95
2018-08-19T17:17:22.364Z,10.45
2018-08-19T17:19:50.030Z,12.45
2018-08-19T17:22:17.669Z,13.00
2018-08-19T17:24:45.274Z,10.78
2018-08-19T17:27:12.897Z,11.63
2018-08-19T17:29:41.537Z,15.98
2018-08-19T17:32:09.155Z,15.48
2018-08-19T17:34:39.115Z,11.50
2018-08-19T17:37:07.823Z,12.53
2018-08-19T17:39:35.546Z,15.72
2018-08-19T17:42:03.148Z,12.80
2018-08-19T17:44:30.753Z,14.25
2018-08-19T17:46:58.382Z,13.72
2018-08-19T17:49:27.022Z,13.48
2018-08-19T17:51:56.627Z,14.35
2018-08-19T17:54:25.956Z,11.85
2018-08-19T17:56:54.702Z,13.55
2018-08-19T17:59:22.590Z,11.68
2018-08-19T18:01:50.187Z,12.78
2018-08-19T18:04:17.822Z,11.45
2018-08-19T18:06:45.462Z,10.25
2018-08-19T18:09:14.066Z,10.50
2018-08-19T18:11:43.215Z,10.23
2018-08-19T18:14:10.847Z,14.28
2018-08-19T18:16:38.469Z,10.63
2018-08-19T18:19:06.177Z,10.20
2018-08-19T18:21:36.149Z,9.70
2018-08-19T18:24:04.643Z,8.80
2018-08-19T18:26:33.119Z,10.40
2018-08-19T18:29:00.788Z,9.45
2018-08-19T18:31:28.434Z,11.30
2018-08-19T18:33:57.866Z,9.03
2018-08-19T18:36:26.798Z,10.20
2018-08-19T18:38:54.728Z,10.35
2018-08-19T18:41:28.341Z,8.95
2018-08-19T18:43:57.271Z,11.60
2018-08-19T18:46:25.271Z,8.68
2018-08-19T18:49:00.042Z,8.18
2018-08-19T18:51:29.202Z,10.10
2018-08-19T18:53:58.097Z,8.20
2018-08-19T18:56:26.940Z,8.20
2018-08-19T18:58:54.657Z,7.53
2018-08-19T19:01:22.334Z,8.25
2018-08-19T19:03:51.049Z,8.40
2018-08-19T19:06:18.793Z,7.65
2018-08-19T19:08:46.431Z,8.18
2018-08-19T19:11:14.809Z,9.18
2018-08-19T19:13:42.448Z,10.90
2018-08-19T19:16:10.130Z,10.45
2018-08-19T19:18:37.705Z,10.38
2018-08-19T19:21:05.897Z,19.07
2018-08-19T19:23:35.606Z,14.63
2018-08-19T19:27:33.009Z,13.43
2018-08-19T19:30:03.997Z,11.53
2018-08-19T19:32:31.739Z,11.80
2018-08-19T19:35:05.137Z,12.78
2018-08-19T19:37:33.765Z,15.30
2018-08-19T19:40:06.033Z,10.55
2018-08-19T19:42:33.842Z,10.48
2018-08-19T19:45:02.018Z,11.22
2018-08-19T19:47:29.653Z,11.12
2018-08-19T19:49:58.309Z,9.93
2018-08-19T19:52:26.181Z,11.48
2018-08-19T19:54:53.992Z,13.03
2018-08-19T19:57:21.655Z,11.68
2018-08-19T19:59:49.315Z,12.18
2018-08-19T20:02:22.331Z,13.28
2018-08-19T20:04:50.147Z,12.45
2018-08-19T20:07:18.421Z,11.63
2018-08-19T20:09:46.090Z,12.40
2018-08-19T20:12:19.328Z,13.30
2018-08-19T20:14:49.308Z,10.25
2018-08-19T20:17:18.060Z,11.08
2018-08-19T20:19:45.689Z,13.80
2018-08-19T20:22:16.659Z,9.88
2018-08-19T20:24:44.475Z,10.38
2018-08-19T20:27:12.079Z,9.73
2018-08-19T20:29:39.771Z,11.33
2018-08-19T20:32:08.518Z,9.30
2018-08-19T20:34:36.150Z,9.15
2018-08-19T20:37:03.802Z,9.80
2018-08-19T20:39:31.456Z,10.03
2018-08-19T20:41:59.478Z,9.00
2018-08-19T20:44:27.107Z,10.80
2018-08-19T20:46:57.369Z,10.53
2018-08-19T20:49:26.454Z,11.12
2018-08-19T20:51:54.987Z,9.30
2018-08-19T20:54:24.180Z,12.70
2018-08-19T20:56:51.913Z,10.68
2018-08-19T20:59:23.213Z,9.73
2018-08-19T21:01:51.153Z,11.43
2018-08-19T21:04:18.790Z,9.23
2018-08-19T21:06:46.464Z,10.68
2018-08-19T21:09:14.248Z,10.03
2018-08-19T21:11:41.846Z,10.00
2018-08-19T21:14:09.438Z,10.30
2018-08-19T21:16:37.725Z,9.30
2018-08-19T21:19:05.827Z,10.82
2018-08-19T21:21:33.714Z,11.20
2018-08-19T21:24:01.347Z,8.93
2018-08-19T21:26:29.001Z,9.18
2018-08-19T21:29:01.934Z,9.48
2018-08-19T21:31:30.102Z,10.00
2018-08-19T21:33:57.781Z,9.28
2018-08-19T21:36:25.823Z,9.88
2018-08-19T21:38:53.409Z,10.35
2018-08-19T21:41:20.982Z,59.73
2018-08-19T21:43:48.602Z,92.10
2018-08-19T21:46:16.187Z,59.38
2018-08-19T21:48:44.057Z,53.33
2018-08-19T21:51:11.670Z,29.25
2018-08-19T21:53:39.259Z,33.95
2018-08-19T21:56:06.910Z,34.92
2018-08-19T21:58:34.537Z,42.40
2018-08-19T22:01:03.381Z,40.90
2018-08-19T22:03:36.746Z,36.60
2018-08-19T22:06:06.377Z,44.75
2018-08-19T22:08:34.006Z,40.78
2018-08-19T22:11:01.621Z,34.78
2018-08-19T22:13:29.258Z,31.97
2018-08-19T22:15:56.904Z,27.87
2018-08-19T22:18:28.498Z,30.55
2018-08-19T22:21:12.727Z,28.60
2018-08-19T22:23:44.131Z,27.07
2018-08-19T22:26:13.915Z,29.70
2018-08-19T22:28:42.016Z,27.60
2018-08-19T22:31:25.647Z,28.73
2018-08-19T22:33:54.370Z,31.33
2018-08-19T22:36:21.970Z,28.38
2018-08-19T22:38:50.252Z,28.47
2018-08-19T22:41:22.889Z,24.60
2018-08-19T22:43:51.096Z,28.20
2018-08-19T22:46:18.756Z,23.35
2018-08-19T22:48:46.397Z,22.32
2018-08-19T22:51:14.370Z,23.80
2018-08-19T22:53:41.938Z,25.80
2018-08-19T22:56:09.542Z,23.22
2018-08-19T22:58:37.275Z,24.65
2018-08-19T23:01:05.533Z,25.37
2018-08-19T23:03:33.162Z,21.07
2018-08-19T23:06:00.753Z,23.25
2018-08-19T23:08:29.605Z,22.70
2018-08-19T23:10:59.313Z,19.20
2018-08-19T23:13:44.178Z,20.82
2018-08-19T23:18:48.202Z,18.75
2018-08-19T23:21:15.765Z,18.12
2018-08-19T23:23:43.354Z,19.00
2018-08-19T23:26:10.933Z,16.80
2018-08-19T23:28:38.511Z,17.12
2018-08-19T23:31:06.109Z,19.35
2018-08-19T23:33:33.670Z,16.82
2018-08-19T23:36:01.240Z,16.57
2018-08-19T23:38:28.813Z,14.75
2018-08-19T23:40:56.412Z,19.45
2018-08-19T23:43:23.995Z,13.32
2018-08-19T23:45:51.570Z,16.87
2018-08-19T23:48:19.145Z,15.10
2018-08-19T23:50:46.741Z,14.28
2018-08-19T23:53:14.357Z,15.72
2018-08-19T23:55:41.961Z,17.05
2018-08-19T23:58:10.294Z,15.28
